sensor_id;sensor_type;location;lat;lon;timestamp;pressure;altitude;pressure_sealevel;temperature;humidity
18918;BME280;9591;52.742;13.650;2023-04-24T00:01:50;99869.38;;;11.82;100.00
18918;BME280;9591;52.742;13.650;2023-04-24T00:04:37;99863.78;;;11.70;100.00
18918;BME280;9591;52.742;13.650;2023-04-24T00:07:27;99855.50;;;11.59;100.00
18918;BME280;9591;52.742;13.650;2023-04-24T00:10:13;99851.38;;;11.53;100.00
18918;BME280;9591;52.742;13.650;2023-04-24T00:13:00;99853.72;;;11.59;100.00
18918;BME280;9591;52.742;13.650;2023-04-24T00:15:47;99844.81;;;11.60;100.00
18918;BME280;9591;52.742;13.650;2023-04-24T00:18:34;99836.47;;;11.50;100.00
18918;BME280;9591;52.742;13.650;2023-04-24T00:21:20;99832.97;;;11.67;100.00
18918;BME280;9591;52.742;13.650;2023-04-24T00:24:12;99822.66;;;11.61;100.00
18918;BME280;9591;52.742;13.650;2023-04-24T00:26:58;99822.06;;;11.73;100.00
18918;BME280;9591;52.742;13.650;2023-04-24T00:29:46;99819.25;;;11.59;100.00
18918;BME280;9591;52.742;13.650;2023-04-24T00:32:32;99814.09;;;11.56;100.00
18918;BME280;9591;52.742;13.650;2023-04-24T00:35:19;99821.00;;;11.41;100.00
18918;BME280;9591;52.742;13.650;2023-04-24T00:38:06;99812.34;;;11.38;100.00
18918;BME280;9591;52.742;13.650;2023-04-24T00:40:54;99802.69;;;11.54;100.00
18918;BME280;9591;52.742;13.650;2023-04-24T00:43:41;99802.06;;;11.49;100.00
18918;BME280;9591;52.742;13.650;2023-04-24T00:46:28;99796.69;;;11.50;100.00
18918;BME280;9591;52.742;13.650;2023-04-24T00:49:17;99789.28;;;11.57;100.00
18918;BME280;9591;52.742;13.650;2023-04-24T00:52:04;99785.53;;;11.61;100.00
18918;BME280;9591;52.742;13.650;2023-04-24T00:54:53;99792.66;;;11.61;100.00
18918;BME280;9591;52.742;13.650;2023-04-24T00:57:42;99791.09;;;11.57;100.00
18918;BME280;9591;52.742;13.650;2023-04-24T01:00:28;99783.97;;;11.57;100.00
18918;BME280;9591;52.742;13.650;2023-04-24T01:03:15;99781.03;;;11.63;100.00
18918;BME280;9591;52.742;13.650;2023-04-24T01:06:04;99777.03;;;11.72;100.00
18918;BME280;9591;52.742;13.650;2023-04-24T01:08:52;99768.47;;;11.67;100.00
18918;BME280;9591;52.742;13.650;2023-04-24T01:11:40;99773.53;;;11.71;100.00
18918;BME280;9591;52.742;13.650;2023-04-24T01:14:30;99768.38;;;11.68;100.00
18918;BME280;9591;52.742;13.650;2023-04-24T01:17:17;99763.63;;;11.75;100.00
18918;BME280;9591;52.742;13.650;2023-04-24T01:20:06;99762.84;;;11.73;100.00
18918;BME280;9591;52.742;13.650;2023-04-24T01:22:55;99763.78;;;11.72;100.00
18918;BME280;9591;52.742;13.650;2023-04-24T01:25:42;99752.47;;;11.68;100.00
18918;BME280;9591;52.742;13.650;2023-04-24T01:28:30;99751.53;;;11.69;100.00
18918;BME280;9591;52.742;13.650;2023-04-24T01:31:17;99755.66;;;11.75;100.00
18918;BME280;9591;52.742;13.650;2023-04-24T01:34:04;99758.38;;;11.73;100.00
18918;BME280;9591;52.742;13.650;2023-04-24T01:36:51;99751.84;;;11.63;100.00
18918;BME280;9591;52.742;13.650;2023-04-24T01:39:39;99748.56;;;11.58;100.00
18918;BME280;9591;52.742;13.650;2023-04-24T01:42:26;99750.84;;;11.66;100.00
18918;BME280;9591;52.742;13.650;2023-04-24T01:45:13;99749.59;;;11.56;100.00
18918;BME280;9591;52.742;13.650;2023-04-24T01:48:00;99765.13;;;11.46;100.00
18918;BME280;9591;52.742;13.650;2023-04-24T01:50:46;99754.81;;;11.40;100.00
18918;BME280;9591;52.742;13.650;2023-04-24T01:53:33;99758.78;;;11.66;100.00
18918;BME280;9591;52.742;13.650;2023-04-24T01:56:22;99750.59;;;11.88;100.00
18918;BME280;9591;52.742;13.650;2023-04-24T01:59:09;99748.84;;;12.04;100.00
18918;BME280;9591;52.742;13.650;2023-04-24T02:01:57;99743.09;;;11.96;100.00
18918;BME280;9591;52.742;13.650;2023-04-24T02:04:44;99737.78;;;11.96;100.00
18918;BME280;9591;52.742;13.650;2023-04-24T02:07:30;99730.81;;;12.10;100.00
18918;BME280;9591;52.742;13.650;2023-04-24T02:10:18;99721.69;;;11.99;100.00
18918;BME280;9591;52.742;13.650;2023-04-24T02:13:06;99723.34;;;12.01;100.00
18918;BME280;9591;52.742;13.650;2023-04-24T02:15:53;99714.34;;;12.04;100.00
18918;BME280;9591;52.742;13.650;2023-04-24T02:18:41;99719.06;;;11.99;100.00
18918;BME280;9591;52.742;13.650;2023-04-24T02:21:28;99716.22;;;12.02;100.00
18918;BME280;9591;52.742;13.650;2023-04-24T02:24:15;99717.25;;;12.15;100.00
18918;BME280;9591;52.742;13.650;2023-04-24T02:27:02;99718.97;;;12.16;100.00
18918;BME280;9591;52.742;13.650;2023-04-24T02:29:50;99710.91;;;12.18;100.00
18918;BME280;9591;52.742;13.650;2023-04-24T02:32:37;99713.81;;;11.97;100.00
18918;BME280;9591;52.742;13.650;2023-04-24T02:35:27;99715.00;;;11.92;100.00
18918;BME280;9591;52.742;13.650;2023-04-24T02:38:14;99717.16;;;12.01;100.00
18918;BME280;9591;52.742;13.650;2023-04-24T02:41:01;99718.00;;;11.86;100.00
18918;BME280;9591;52.742;13.650;2023-04-24T02:43:51;99706.59;;;11.84;100.00
18918;BME280;9591;52.742;13.650;2023-04-24T02:46:39;99704.06;;;11.98;100.00
18918;BME280;9591;52.742;13.650;2023-04-24T02:49:27;99700.03;;;11.91;100.00
18918;BME280;9591;52.742;13.650;2023-04-24T02:52:13;99702.00;;;11.87;100.00
18918;BME280;9591;52.742;13.650;2023-04-24T02:55:02;99706.13;;;11.93;100.00
18918;BME280;9591;52.742;13.650;2023-04-24T02:57:49;99692.41;;;11.85;100.00
18918;BME280;9591;52.742;13.650;2023-04-24T03:00:35;99701.47;;;11.80;100.00
18918;BME280;9591;52.742;13.650;2023-04-24T03:03:24;99702.31;;;11.81;100.00
18918;BME280;9591;52.742;13.650;2023-04-24T03:06:10;99698.56;;;11.85;100.00
18918;BME280;9591;52.742;13.650;2023-04-24T03:08:57;99704.69;;;12.03;100.00
18918;BME280;9591;52.742;13.650;2023-04-24T03:11:44;99699.28;;;12.04;100.00
18918;BME280;9591;52.742;13.650;2023-04-24T03:14:31;99701.25;;;12.01;100.00
18918;BME280;9591;52.742;13.650;2023-04-24T03:17:18;99692.25;;;12.19;100.00
18918;BME280;9591;52.742;13.650;2023-04-24T03:20:07;99694.47;;;12.27;100.00
18918;BME280;9591;52.742;13.650;2023-04-24T03:22:55;99694.06;;;12.34;100.00
18918;BME280;9591;52.742;13.650;2023-04-24T03:25:43;99694.84;;;12.36;100.00
18918;BME280;9591;52.742;13.650;2023-04-24T03:28:30;99693.28;;;12.32;100.00
18918;BME280;9591;52.742;13.650;2023-04-24T03:31:21;99694.41;;;12.28;100.00
18918;BME280;9591;52.742;13.650;2023-04-24T03:34:08;99693.97;;;12.36;100.00
18918;BME280;9591;52.742;13.650;2023-04-24T03:36:56;99703.13;;;12.46;100.00
18918;BME280;9591;52.742;13.650;2023-04-24T03:39:44;99707.84;;;12.57;100.00
18918;BME280;9591;52.742;13.650;2023-04-24T03:42:32;99710.25;;;12.77;100.00
18918;BME280;9591;52.742;13.650;2023-04-24T03:45:21;99710.56;;;12.87;100.00
18918;BME280;9591;52.742;13.650;2023-04-24T03:48:09;99705.25;;;12.87;100.00
18918;BME280;9591;52.742;13.650;2023-04-24T03:50:56;99707.38;;;12.96;100.00
18918;BME280;9591;52.742;13.650;2023-04-24T03:53:44;99704.91;;;13.07;100.00
18918;BME280;9591;52.742;13.650;2023-04-24T03:56:35;99704.63;;;13.27;100.00
18918;BME280;9591;52.742;13.650;2023-04-24T03:59:22;99705.31;;;13.31;100.00
18918;BME280;9591;52.742;13.650;2023-04-24T04:02:27;99705.44;;;13.43;100.00
18918;BME280;9591;52.742;13.650;2023-04-24T04:05:14;99700.69;;;13.49;100.00
18918;BME280;9591;52.742;13.650;2023-04-24T04:08:01;99698.91;;;13.63;100.00
18918;BME280;9591;52.742;13.650;2023-04-24T04:10:49;99691.88;;;13.62;100.00
18918;BME280;9591;52.742;13.650;2023-04-24T04:13:36;99707.84;;;13.62;100.00
18918;BME280;9591;52.742;13.650;2023-04-24T04:16:22;99699.22;;;13.73;100.00
18918;BME280;9591;52.742;13.650;2023-04-24T04:19:14;99702.53;;;13.76;100.00
18918;BME280;9591;52.742;13.650;2023-04-24T04:22:01;99706.91;;;13.77;100.00
18918;BME280;9591;52.742;13.650;2023-04-24T04:24:57;99700.28;;;13.85;100.00
18918;BME280;9591;52.742;13.650;2023-04-24T04:27:46;99704.44;;;13.74;100.00
18918;BME280;9591;52.742;13.650;2023-04-24T04:30:33;99698.75;;;13.81;100.00
18918;BME280;9591;52.742;13.650;2023-04-24T04:33:21;99696.94;;;13.81;100.00
18918;BME280;9591;52.742;13.650;2023-04-24T04:36:08;99689.59;;;13.99;100.00
18918;BME280;9591;52.742;13.650;2023-04-24T04:39:00;99624.63;;;13.60;100.00
18918;BME280;9591;52.742;13.650;2023-04-24T04:42:04;99690.47;;;13.85;100.00
18918;BME280;9591;52.742;13.650;2023-04-24T04:45:03;99690.00;;;13.78;100.00
18918;BME280;9591;52.742;13.650;2023-04-24T04:48:02;99696.75;;;13.84;100.00
18918;BME280;9591;52.742;13.650;2023-04-24T04:50:49;99699.50;;;13.83;100.00
18918;BME280;9591;52.742;13.650;2023-04-24T04:53:38;99695.91;;;13.84;100.00
18918;BME280;9591;52.742;13.650;2023-04-24T04:56:25;99696.91;;;13.95;100.00
18918;BME280;9591;52.742;13.650;2023-04-24T04:59:14;99695.09;;;14.10;100.00
18918;BME280;9591;52.742;13.650;2023-04-24T05:02:02;99698.25;;;14.02;100.00
18918;BME280;9591;52.742;13.650;2023-04-24T05:04:49;99701.09;;;13.99;100.00
18918;BME280;9591;52.742;13.650;2023-04-24T05:07:36;99703.84;;;14.12;100.00
18918;BME280;9591;52.742;13.650;2023-04-24T05:10:23;99707.66;;;14.22;100.00
18918;BME280;9591;52.742;13.650;2023-04-24T05:13:12;99720.38;;;14.31;100.00
18918;BME280;9591;52.742;13.650;2023-04-24T05:15:59;99713.81;;;14.37;100.00
18918;BME280;9591;52.742;13.650;2023-04-24T05:18:48;99715.91;;;14.46;100.00
18918;BME280;9591;52.742;13.650;2023-04-24T05:21:39;99718.19;;;14.52;100.00
18918;BME280;9591;52.742;13.650;2023-04-24T05:24:27;99716.03;;;14.71;100.00
18918;BME280;9591;52.742;13.650;2023-04-24T05:27:20;99721.69;;;14.67;100.00
18918;BME280;9591;52.742;13.650;2023-04-24T05:30:08;99720.34;;;14.60;100.00
18918;BME280;9591;52.742;13.650;2023-04-24T05:32:55;99714.25;;;14.85;100.00
18918;BME280;9591;52.742;13.650;2023-04-24T05:35:44;99709.94;;;14.96;100.00
18918;BME280;9591;52.742;13.650;2023-04-24T05:38:32;99715.81;;;15.01;100.00
18918;BME280;9591;52.742;13.650;2023-04-24T05:41:19;99715.00;;;15.14;100.00
18918;BME280;9591;52.742;13.650;2023-04-24T05:44:06;99724.00;;;15.25;100.00
18918;BME280;9591;52.742;13.650;2023-04-24T05:46:53;99716.94;;;15.24;100.00
18918;BME280;9591;52.742;13.650;2023-04-24T05:49:41;99716.91;;;15.51;100.00
18918;BME280;9591;52.742;13.650;2023-04-24T05:52:29;99721.72;;;15.71;100.00
18918;BME280;9591;52.742;13.650;2023-04-24T05:55:17;99721.63;;;15.98;100.00
18918;BME280;9591;52.742;13.650;2023-04-24T05:58:05;99723.31;;;15.99;100.00
18918;BME280;9591;52.742;13.650;2023-04-24T06:00:53;99724.47;;;16.21;100.00
18918;BME280;9591;52.742;13.650;2023-04-24T06:03:40;99722.78;;;16.56;100.00
18918;BME280;9591;52.742;13.650;2023-04-24T06:06:27;99724.38;;;16.71;100.00
18918;BME280;9591;52.742;13.650;2023-04-24T06:09:16;99727.97;;;16.83;100.00
18918;BME280;9591;52.742;13.650;2023-04-24T06:12:03;99720.44;;;16.88;100.00
18918;BME280;9591;52.742;13.650;2023-04-24T06:15:04;99716.19;;;16.86;100.00
18918;BME280;9591;52.742;13.650;2023-04-24T06:18:29;99726.41;;;16.68;100.00
18918;BME280;9591;52.742;13.650;2023-04-24T06:21:16;99722.91;;;16.91;100.00
18918;BME280;9591;52.742;13.650;2023-04-24T06:24:03;99725.09;;;17.21;100.00
18918;BME280;9591;52.742;13.650;2023-04-24T06:26:51;99728.59;;;17.11;100.00
18918;BME280;9591;52.742;13.650;2023-04-24T06:29:38;99728.19;;;17.28;100.00
18918;BME280;9591;52.742;13.650;2023-04-24T06:32:26;99728.69;;;17.09;100.00
18918;BME280;9591;52.742;13.650;2023-04-24T06:35:13;99724.41;;;17.42;100.00
18918;BME280;9591;52.742;13.650;2023-04-24T06:38:00;99728.22;;;17.50;100.00
18918;BME280;9591;52.742;13.650;2023-04-24T06:40:47;99731.16;;;17.93;100.00
18918;BME280;9591;52.742;13.650;2023-04-24T06:43:35;99717.13;;;17.44;97.51
18918;BME280;9591;52.742;13.650;2023-04-24T06:46:21;99723.06;;;17.36;100.00
18918;BME280;9591;52.742;13.650;2023-04-24T06:49:11;99727.84;;;17.09;97.11
18918;BME280;9591;52.742;13.650;2023-04-24T06:52:01;99720.88;;;17.30;99.70
18918;BME280;9591;52.742;13.650;2023-04-24T06:54:48;99655.88;;;16.82;100.00
18918;BME280;9591;52.742;13.650;2023-04-24T06:57:35;99730.56;;;17.20;100.00
18918;BME280;9591;52.742;13.650;2023-04-24T07:00:23;99732.09;;;17.46;98.21
18918;BME280;9591;52.742;13.650;2023-04-24T07:03:10;99724.69;;;17.50;99.83
18918;BME280;9591;52.742;13.650;2023-04-24T07:05:57;99725.97;;;17.22;98.47
18918;BME280;9591;52.742;13.650;2023-04-24T07:08:44;99724.53;;;17.40;99.18
18918;BME280;9591;52.742;13.650;2023-04-24T07:11:31;99722.09;;;17.37;99.66
18918;BME280;9591;52.742;13.650;2023-04-24T07:14:18;99716.88;;;17.71;98.19
18918;BME280;9591;52.742;13.650;2023-04-24T07:17:07;99724.13;;;17.22;96.26
18918;BME280;9591;52.742;13.650;2023-04-24T07:19:53;99715.97;;;17.59;97.96
18918;BME280;9591;52.742;13.650;2023-04-24T07:22:40;99709.59;;;18.06;96.64
18918;BME280;9591;52.742;13.650;2023-04-24T07:25:27;99719.69;;;18.36;90.91
18918;BME280;9591;52.742;13.650;2023-04-24T07:28:14;99721.66;;;18.00;89.84
18918;BME280;9591;52.742;13.650;2023-04-24T07:31:01;99725.66;;;18.40;89.18
18918;BME280;9591;52.742;13.650;2023-04-24T07:33:49;99718.47;;;18.62;85.83
18918;BME280;9591;52.742;13.650;2023-04-24T07:36:35;99719.56;;;18.71;87.78
18918;BME280;9591;52.742;13.650;2023-04-24T07:39:23;99722.00;;;18.63;83.99
18918;BME280;9591;52.742;13.650;2023-04-24T07:42:11;99725.63;;;18.73;83.44
18918;BME280;9591;52.742;13.650;2023-04-24T07:44:58;99722.06;;;19.16;84.73
18918;BME280;9591;52.742;13.650;2023-04-24T07:47:44;99729.91;;;19.40;83.86
18918;BME280;9591;52.742;13.650;2023-04-24T07:50:33;99727.25;;;19.81;76.88
18918;BME280;9591;52.742;13.650;2023-04-24T07:53:19;99724.84;;;20.09;76.47
18918;BME280;9591;52.742;13.650;2023-04-24T07:56:06;99727.13;;;19.83;78.18
18918;BME280;9591;52.742;13.650;2023-04-24T07:58:53;99726.41;;;19.60;76.36
18918;BME280;9591;52.742;13.650;2023-04-24T08:01:40;99725.63;;;19.37;77.67
18918;BME280;9591;52.742;13.650;2023-04-24T08:04:27;99727.00;;;19.31;76.86
18918;BME280;9591;52.742;13.650;2023-04-24T08:07:15;99725.13;;;19.43;79.38
18918;BME280;9591;52.742;13.650;2023-04-24T08:10:02;99718.66;;;19.14;75.23
18918;BME280;9591;52.742;13.650;2023-04-24T08:12:49;99722.81;;;19.39;79.04
18918;BME280;9591;52.742;13.650;2023-04-24T08:15:36;99712.53;;;19.55;76.15
18918;BME280;9591;52.742;13.650;2023-04-24T08:18:23;99721.63;;;19.84;71.93
18918;BME280;9591;52.742;13.650;2023-04-24T08:21:09;99718.63;;;19.78;74.81
18918;BME280;9591;52.742;13.650;2023-04-24T08:23:59;99715.97;;;20.18;71.32
18918;BME280;9591;52.742;13.650;2023-04-24T08:26:50;99713.50;;;20.36;70.62
18918;BME280;9591;52.742;13.650;2023-04-24T08:29:37;99719.56;;;20.58;68.82
18918;BME280;9591;52.742;13.650;2023-04-24T08:32:24;99719.41;;;20.29;65.35
18918;BME280;9591;52.742;13.650;2023-04-24T08:35:12;99722.72;;;20.73;65.60
18918;BME280;9591;52.742;13.650;2023-04-24T08:37:59;99725.53;;;20.81;64.54
18918;BME280;9591;52.742;13.650;2023-04-24T08:40:48;99726.50;;;20.80;64.44
18918;BME280;9591;52.742;13.650;2023-04-24T08:43:35;99719.53;;;20.49;64.03
18918;BME280;9591;52.742;13.650;2023-04-24T08:46:24;99729.50;;;20.07;61.08
18918;BME280;9591;52.742;13.650;2023-04-24T08:49:11;99726.13;;;20.14;64.89
18918;BME280;9591;52.742;13.650;2023-04-24T08:51:59;99726.28;;;20.13;63.97
18918;BME280;9591;52.742;13.650;2023-04-24T08:54:46;99720.16;;;20.72;54.41
18918;BME280;9591;52.742;13.650;2023-04-24T08:57:35;99719.38;;;21.48;57.19
18918;BME280;9591;52.742;13.650;2023-04-24T09:00:25;99720.19;;;21.10;56.10
18918;BME280;9591;52.742;13.650;2023-04-24T09:03:13;99721.78;;;21.51;55.16
18918;BME280;9591;52.742;13.650;2023-04-24T09:06:01;99715.03;;;21.75;53.49
18918;BME280;9591;52.742;13.650;2023-04-24T09:08:49;99673.97;;;21.63;50.28
18918;BME280;9591;52.742;13.650;2023-04-24T09:11:39;99724.47;;;22.72;49.37
18918;BME280;9591;52.742;13.650;2023-04-24T09:14:27;99724.22;;;23.64;48.17
18918;BME280;9591;52.742;13.650;2023-04-24T09:17:17;99718.88;;;23.72;nan
18918;BME280;9591;52.742;13.650;2023-04-24T09:20:05;99717.13;;;23.63;45.06
18918;BME280;9591;52.742;13.650;2023-04-24T09:22:54;99723.75;;;22.80;46.85
18918;BME280;9591;52.742;13.650;2023-04-24T09:25:41;99727.88;;;22.19;50.08
18918;BME280;9591;52.742;13.650;2023-04-24T09:28:31;99725.94;;;21.83;51.30
18918;BME280;9591;52.742;13.650;2023-04-24T09:31:20;99725.75;;;21.57;51.68
18918;BME280;9591;52.742;13.650;2023-04-24T09:34:08;99726.16;;;21.62;54.46
18918;BME280;9591;52.742;13.650;2023-04-24T09:36:54;99733.78;;;21.09;53.15
18918;BME280;9591;52.742;13.650;2023-04-24T09:39:41;99733.91;;;21.07;54.63
18918;BME280;9591;52.742;13.650;2023-04-24T09:42:28;99723.84;;;20.71;56.12
18918;BME280;9591;52.742;13.650;2023-04-24T09:45:16;99736.19;;;21.02;52.64
18918;BME280;9591;52.742;13.650;2023-04-24T09:48:04;99742.38;;;20.83;55.78
18918;BME280;9591;52.742;13.650;2023-04-24T09:50:52;99743.59;;;20.50;55.80
18918;BME280;9591;52.742;13.650;2023-04-24T09:53:38;99739.09;;;20.60;55.34
18918;BME280;9591;52.742;13.650;2023-04-24T09:56:32;99741.84;;;20.40;53.51
18918;BME280;9591;52.742;13.650;2023-04-24T09:59:19;99738.75;;;20.44;56.26
18918;BME280;9591;52.742;13.650;2023-04-24T10:02:16;99744.78;;;20.67;55.94
18918;BME280;9591;52.742;13.650;2023-04-24T10:05:05;99740.19;;;20.48;55.77
18918;BME280;9591;52.742;13.650;2023-04-24T10:07:56;99742.34;;;20.64;53.74
18918;BME280;9591;52.742;13.650;2023-04-24T10:10:44;99745.25;;;20.42;56.48
18918;BME280;9591;52.742;13.650;2023-04-24T10:13:32;99749.44;;;20.35;55.19
18918;BME280;9591;52.742;13.650;2023-04-24T10:16:19;99747.22;;;20.40;54.58
18918;BME280;9591;52.742;13.650;2023-04-24T10:19:07;99740.81;;;20.71;56.37
18918;BME280;9591;52.742;13.650;2023-04-24T10:21:56;99740.56;;;20.74;54.44
18918;BME280;9591;52.742;13.650;2023-04-24T10:24:44;99739.81;;;20.32;54.64
18918;BME280;9591;52.742;13.650;2023-04-24T10:27:32;99724.88;;;20.18;53.29
18918;BME280;9591;52.742;13.650;2023-04-24T10:30:19;99737.66;;;20.26;54.38
18918;BME280;9591;52.742;13.650;2023-04-24T10:33:07;99742.53;;;19.81;55.47
18918;BME280;9591;52.742;13.650;2023-04-24T10:35:55;99739.78;;;19.71;54.41
18918;BME280;9591;52.742;13.650;2023-04-24T10:38:46;99738.59;;;19.64;54.86
18918;BME280;9591;52.742;13.650;2023-04-24T10:41:37;99739.94;;;20.00;56.62
18918;BME280;9591;52.742;13.650;2023-04-24T10:44:24;99739.66;;;20.03;55.83
18918;BME280;9591;52.742;13.650;2023-04-24T10:47:13;99739.50;;;20.25;55.28
18918;BME280;9591;52.742;13.650;2023-04-24T10:50:00;99737.56;;;20.87;54.21
18918;BME280;9591;52.742;13.650;2023-04-24T10:52:49;99735.63;;;21.08;54.34
18918;BME280;9591;52.742;13.650;2023-04-24T10:55:41;99739.78;;;21.22;53.86
18918;BME280;9591;52.742;13.650;2023-04-24T10:58:36;99733.97;;;21.36;54.34
18918;BME280;9591;52.742;13.650;2023-04-24T11:01:24;99730.44;;;21.36;51.48
18918;BME280;9591;52.742;13.650;2023-04-24T11:04:13;99725.59;;;21.49;53.05
18918;BME280;9591;52.742;13.650;2023-04-24T11:06:59;99719.94;;;21.42;55.16
18918;BME280;9591;52.742;13.650;2023-04-24T11:09:57;99730.72;;;21.23;54.36
18918;BME280;9591;52.742;13.650;2023-04-24T11:12:47;99735.19;;;21.13;54.65
18918;BME280;9591;52.742;13.650;2023-04-24T11:15:34;99733.56;;;20.32;55.80
18918;BME280;9591;52.742;13.650;2023-04-24T11:18:22;99733.13;;;20.26;56.71
18918;BME280;9591;52.742;13.650;2023-04-24T11:21:10;99720.03;;;20.12;58.56
18918;BME280;9591;52.742;13.650;2023-04-24T11:23:57;99727.13;;;19.83;59.83
18918;BME280;9591;52.742;13.650;2023-04-24T11:26:44;99723.34;;;20.25;59.82
18918;BME280;9591;52.742;13.650;2023-04-24T11:29:43;99726.06;;;20.56;59.73
18918;BME280;9591;52.742;13.650;2023-04-24T11:32:34;99729.63;;;20.66;58.58
18918;BME280;9591;52.742;13.650;2023-04-24T11:35:22;99730.91;;;20.91;58.02
18918;BME280;9591;52.742;13.650;2023-04-24T11:38:10;99730.66;;;21.04;56.32
18918;BME280;9591;52.742;13.650;2023-04-24T11:41:09;99729.66;;;21.05;56.00
18918;BME280;9591;52.742;13.650;2023-04-24T11:43:57;99723.19;;;20.48;57.92
18918;BME280;9591;52.742;13.650;2023-04-24T11:46:45;99717.75;;;20.78;61.97
18918;BME280;9591;52.742;13.650;2023-04-24T11:49:32;99722.16;;;20.99;62.17
18918;BME280;9591;52.742;13.650;2023-04-24T11:52:19;99716.34;;;21.13;60.41
18918;BME280;9591;52.742;13.650;2023-04-24T11:55:07;99721.03;;;21.11;62.29
18918;BME280;9591;52.742;13.650;2023-04-24T11:57:56;99712.44;;;21.26;62.55
18918;BME280;9591;52.742;13.650;2023-04-24T12:00:43;99721.59;;;21.05;60.82
18918;BME280;9591;52.742;13.650;2023-04-24T12:03:32;99719.44;;;20.89;63.15
18918;BME280;9591;52.742;13.650;2023-04-24T12:06:19;99721.72;;;20.74;63.92
18918;BME280;9591;52.742;13.650;2023-04-24T12:09:06;99725.03;;;20.47;63.71
18918;BME280;9591;52.742;13.650;2023-04-24T12:12:02;99728.31;;;20.30;64.33
18918;BME280;9591;52.742;13.650;2023-04-24T12:14:54;99721.97;;;20.01;65.75
18918;BME280;9591;52.742;13.650;2023-04-24T12:17:42;99707.47;;;19.61;63.79
18918;BME280;9591;52.742;13.650;2023-04-24T12:20:32;99742.13;;;19.64;63.67
18918;BME280;9591;52.742;13.650;2023-04-24T12:23:34;99749.50;;;19.19;68.29
18918;BME280;9591;52.742;13.650;2023-04-24T12:26:21;99767.44;;;19.19;71.57
18918;BME280;9591;52.742;13.650;2023-04-24T12:29:10;99761.22;;;18.86;76.96
18918;BME280;9591;52.742;13.650;2023-04-24T12:31:57;99760.13;;;18.44;80.42
18918;BME280;9591;52.742;13.650;2023-04-24T12:34:44;99754.06;;;18.64;81.49
18918;BME280;9591;52.742;13.650;2023-04-24T12:37:33;99746.31;;;18.93;78.79
18918;BME280;9591;52.742;13.650;2023-04-24T12:40:22;99731.81;;;19.17;79.04
18918;BME280;9591;52.742;13.650;2023-04-24T12:43:15;99732.91;;;19.57;75.45
18918;BME280;9591;52.742;13.650;2023-04-24T12:46:02;99718.66;;;20.18;69.21
18918;BME280;9591;52.742;13.650;2023-04-24T12:48:50;99712.66;;;20.35;65.43
18918;BME280;9591;52.742;13.650;2023-04-24T12:51:38;99710.66;;;20.68;65.54
18918;BME280;9591;52.742;13.650;2023-04-24T12:54:32;99719.66;;;20.47;68.18
18918;BME280;9591;52.742;13.650;2023-04-24T12:57:20;99708.66;;;20.60;66.56
18918;BME280;9591;52.742;13.650;2023-04-24T13:00:10;99704.88;;;20.72;69.34
18918;BME280;9591;52.742;13.650;2023-04-24T13:02:59;99691.97;;;20.95;68.58
18918;BME280;9591;52.742;13.650;2023-04-24T13:05:53;99689.56;;;20.82;67.35
18918;BME280;9591;52.742;13.650;2023-04-24T13:08:41;99691.97;;;20.76;65.93
18918;BME280;9591;52.742;13.650;2023-04-24T13:11:29;99668.75;;;20.65;67.86
18918;BME280;9591;52.742;13.650;2023-04-24T13:14:16;99682.91;;;20.77;66.25
18918;BME280;9591;52.742;13.650;2023-04-24T13:17:04;99665.94;;;20.76;64.87
18918;BME280;9591;52.742;13.650;2023-04-24T13:19:56;99655.75;;;20.80;63.85
18918;BME280;9591;52.742;13.650;2023-04-24T13:22:42;99659.97;;;21.02;61.34
18918;BME280;9591;52.742;13.650;2023-04-24T13:25:34;99596.66;;;20.98;59.80
18918;BME280;9591;52.742;13.650;2023-04-24T13:28:24;99647.38;;;21.31;60.61
18918;BME280;9591;52.742;13.650;2023-04-24T13:31:12;99653.34;;;21.25;62.17
18918;BME280;9591;52.742;13.650;2023-04-24T13:34:00;99662.09;;;21.17;57.81
18918;BME280;9591;52.742;13.650;2023-04-24T13:36:47;99666.34;;;20.91;60.92
18918;BME280;9591;52.742;13.650;2023-04-24T13:39:36;99678.75;;;20.44;60.76
18918;BME280;9591;52.742;13.650;2023-04-24T13:42:23;99679.53;;;20.35;64.71
18918;BME280;9591;52.742;13.650;2023-04-24T13:45:12;99685.56;;;20.17;67.12
18918;BME280;9591;52.742;13.650;2023-04-24T13:48:09;99684.97;;;20.44;62.91
18918;BME280;9591;52.742;13.650;2023-04-24T13:50:56;99686.56;;;20.56;62.52
18918;BME280;9591;52.742;13.650;2023-04-24T13:53:46;99681.88;;;20.18;68.15
18918;BME280;9591;52.742;13.650;2023-04-24T13:56:33;99664.84;;;20.39;63.72
18918;BME280;9591;52.742;13.650;2023-04-24T13:59:20;99678.25;;;20.29;63.17
18918;BME280;9591;52.742;13.650;2023-04-24T14:02:08;99682.69;;;20.40;65.11
18918;BME280;9591;52.742;13.650;2023-04-24T14:04:56;99676.53;;;20.28;64.13
18918;BME280;9591;52.742;13.650;2023-04-24T14:07:44;99680.53;;;20.03;65.88
18918;BME280;9591;52.742;13.650;2023-04-24T14:10:31;99683.03;;;20.25;66.47
18918;BME280;9591;52.742;13.650;2023-04-24T14:13:18;99682.22;;;20.35;65.80
18918;BME280;9591;52.742;13.650;2023-04-24T14:16:05;99682.28;;;20.44;66.77
18918;BME280;9591;52.742;13.650;2023-04-24T14:18:54;99684.97;;;20.14;64.44
18918;BME280;9591;52.742;13.650;2023-04-24T14:21:41;99670.59;;;20.24;61.71
18918;BME280;9591;52.742;13.650;2023-04-24T14:24:28;99674.09;;;20.55;63.16
18918;BME280;9591;52.742;13.650;2023-04-24T14:27:15;99670.31;;;20.87;62.24
18918;BME280;9591;52.742;13.650;2023-04-24T14:30:02;99660.41;;;20.78;57.91
18918;BME280;9591;52.742;13.650;2023-04-24T14:32:49;99666.06;;;20.94;59.82
18918;BME280;9591;52.742;13.650;2023-04-24T14:35:37;99673.97;;;20.86;54.01
18918;BME280;9591;52.742;13.650;2023-04-24T14:38:24;99672.13;;;20.57;52.89
18918;BME280;9591;52.742;13.650;2023-04-24T14:41:11;99618.28;;;19.88;54.59
18918;BME280;9591;52.742;13.650;2023-04-24T14:43:58;99670.41;;;20.47;53.95
18918;BME280;9591;52.742;13.650;2023-04-24T14:46:45;99673.13;;;20.85;53.84